createdAt,value
2018-04-23T00:00:53.682Z,27.50
2018-04-23T00:03:21.160Z,29.13
2018-04-23T00:05:48.641Z,28.80
2018-04-23T00:08:16.916Z,30.93
2018-04-23T00:10:44.394Z,30.37
2018-04-23T00:13:11.873Z,33.27
2018-04-23T00:15:40.108Z,33.47
2018-04-23T00:18:07.592Z,30.60
2018-04-23T00:20:35.068Z,33.27
2018-04-23T00:23:02.677Z,32.57
2018-04-23T00:25:30.914Z,31.30
2018-04-23T00:30:49.026Z,28.53
2018-04-23T00:33:17.276Z,27.23
2018-04-23T00:35:44.769Z,23.27
2018-04-23T00:45:34.173Z,22.33
2018-04-23T00:48:02.433Z,30.23
2018-04-23T00:50:29.909Z,31.95
2018-04-23T00:53:09.548Z,27.97
2018-04-23T00:55:37.136Z,28.30
2018-04-23T00:58:04.594Z,28.60
2018-04-23T01:00:32.074Z,30.80
2018-04-23T01:02:59.642Z,30.33
2018-04-23T01:05:27.154Z,32.90
2018-04-23T01:07:54.685Z,35.47
2018-04-23T01:10:22.255Z,31.80
2018-04-23T01:12:49.743Z,32.70
2018-04-23T01:15:17.975Z,33.37
2018-04-23T01:17:45.457Z,32.27
2018-04-23T01:20:12.953Z,41.60
2018-04-23T01:22:40.511Z,34.30
2018-04-23T01:25:08.093Z,34.90
2018-04-23T01:27:36.337Z,35.37
2018-04-23T01:30:03.845Z,37.80
2018-04-23T01:32:31.309Z,37.10
2018-04-23T01:34:58.795Z,38.67
2018-04-23T01:37:26.278Z,39.30
2018-04-23T01:39:54.513Z,40.50
2018-04-23T01:42:22.025Z,37.07
2018-04-23T01:44:49.574Z,39.90
2018-04-23T01:47:17.064Z,42.07
2018-04-23T01:49:44.543Z,40.67
2018-04-23T01:52:12.805Z,38.40
2018-04-23T01:54:40.392Z,40.73
2018-04-23T01:57:07.947Z,39.77
2018-04-23T01:59:35.429Z,37.57
2018-04-23T02:02:02.899Z,40.00
2018-04-23T02:04:30.371Z,39.53
2018-04-23T02:06:57.926Z,41.37
2018-04-23T02:09:25.514Z,42.53
2018-04-23T02:11:52.997Z,43.10
2018-04-23T02:14:20.461Z,43.30
2018-04-23T02:16:47.953Z,42.87
2018-04-23T02:19:16.220Z,42.13
2018-04-23T02:21:43.705Z,45.27
2018-04-23T02:24:11.958Z,47.07
2018-04-23T02:26:39.453Z,46.47
2018-04-23T02:29:08.350Z,47.23
2018-04-23T02:31:36.591Z,50.87
2018-04-23T02:34:04.094Z,52.23
2018-04-23T02:36:31.577Z,49.80
2018-04-23T02:38:59.079Z,49.03
2018-04-23T02:41:26.557Z,65.15
2018-04-23T02:43:54.032Z,64.40
2018-04-23T02:46:21.501Z,66.50
2018-04-23T02:48:49.014Z,67.35
2018-04-23T02:51:16.493Z,70.97
2018-04-23T02:53:44.762Z,66.32
2018-04-23T02:56:12.802Z,66.07
2018-04-23T02:58:40.289Z,64.97
2018-04-23T03:01:07.790Z,70.80
2018-04-23T03:03:35.287Z,69.37
2018-04-23T03:06:03.547Z,72.82
2018-04-23T03:08:31.018Z,74.00
2018-04-23T03:10:58.609Z,75.25
2018-04-23T03:13:26.164Z,76.60
2018-04-23T03:15:53.739Z,78.65
2018-04-23T03:18:21.201Z,76.75
2018-04-23T03:20:48.695Z,77.12
2018-04-23T03:23:16.258Z,76.50
2018-04-23T03:25:43.830Z,75.32
2018-04-23T03:28:11.298Z,74.68
2018-04-23T03:30:38.765Z,68.05
2018-04-23T03:33:06.226Z,70.47
2018-04-23T03:35:33.706Z,60.95
2018-04-23T03:38:01.195Z,59.40
2018-04-23T03:40:29.547Z,56.90
2018-04-23T03:42:57.040Z,54.80
2018-04-23T03:45:24.590Z,46.25
2018-04-23T03:47:52.162Z,44.20
2018-04-23T03:50:19.652Z,43.13
2018-04-23T03:52:47.229Z,42.38
2018-04-23T03:55:14.694Z,42.30
2018-04-23T03:57:42.191Z,44.78
2018-04-23T04:00:10.426Z,46.05
2018-04-23T04:02:37.902Z,48.85
2018-04-23T04:05:05.386Z,48.30
2018-04-23T04:07:32.893Z,47.92
2018-04-23T04:10:00.355Z,44.95
2018-04-23T04:12:39.658Z,44.20
2018-04-23T04:15:19.052Z,41.05
2018-04-23T04:20:58.577Z,36.20
2018-04-23T04:23:26.057Z,36.25
2018-04-23T04:25:53.531Z,33.03
2018-04-23T04:28:21.012Z,32.53
2018-04-23T04:30:48.475Z,29.90
2018-04-23T04:33:15.952Z,30.90
2018-04-23T04:35:43.484Z,30.88
2018-04-23T04:38:10.920Z,31.02
2018-04-23T04:40:39.171Z,32.80
2018-04-23T04:43:06.791Z,32.22
2018-04-23T04:45:35.033Z,29.17
2018-04-23T04:48:02.607Z,30.42
2018-04-23T04:50:30.189Z,31.60
2018-04-23T04:52:57.641Z,29.80
2018-04-23T04:55:25.113Z,31.02
2018-04-23T04:57:52.592Z,31.40
2018-04-23T05:00:20.080Z,29.52
2018-04-23T05:02:47.641Z,29.87
2018-04-23T05:05:15.205Z,28.90
2018-04-23T05:07:42.659Z,28.15
2018-04-23T05:10:10.148Z,27.90
2018-04-23T05:12:37.709Z,25.20
2018-04-23T05:15:05.280Z,24.63
2018-04-23T05:17:32.756Z,24.40
2018-04-23T05:20:00.222Z,22.58
2018-04-23T05:22:27.724Z,21.50
2018-04-23T05:24:55.268Z,22.20
2018-04-23T05:27:22.852Z,20.67
2018-04-23T05:29:50.397Z,21.60
2018-04-23T05:32:17.863Z,21.12
2018-04-23T05:34:45.360Z,20.10
2018-04-23T05:37:12.827Z,20.40
2018-04-23T05:39:40.290Z,19.50
2018-04-23T05:42:07.792Z,21.13
2018-04-23T05:44:36.034Z,19.87
2018-04-23T05:47:03.530Z,19.75
2018-04-23T05:49:31.084Z,19.87
2018-04-23T05:51:58.548Z,19.73
2018-04-23T05:54:26.014Z,19.40
2018-04-23T05:56:53.586Z,18.60
2018-04-23T05:59:21.068Z,18.60
2018-04-23T06:01:48.645Z,19.50
2018-04-23T06:04:16.134Z,19.60
2018-04-23T06:06:44.369Z,19.93
2018-04-23T06:09:11.841Z,19.08
2018-04-23T06:11:39.337Z,18.87
2018-04-23T06:14:06.948Z,20.10
2018-04-23T06:16:35.184Z,18.63
2018-04-23T06:19:02.655Z,18.90
2018-04-23T06:21:30.138Z,18.87
2018-04-23T06:23:57.605Z,20.15
2018-04-23T06:26:25.158Z,19.08
2018-04-23T06:28:52.744Z,19.20
2018-04-23T06:31:20.303Z,19.60
2018-04-23T06:33:47.784Z,18.92
2018-04-23T06:36:15.249Z,18.52
2018-04-23T06:38:42.729Z,17.20
2018-04-23T06:41:10.300Z,17.67
2018-04-23T06:43:37.770Z,17.48
2018-04-23T06:46:05.355Z,17.05
2018-04-23T06:48:33.618Z,16.02
2018-04-23T06:51:01.074Z,17.37
2018-04-23T06:53:28.548Z,15.90
2018-04-23T06:55:56.026Z,16.30
2018-04-23T06:58:23.521Z,16.08
2018-04-23T07:00:51.077Z,17.37
2018-04-23T07:03:18.531Z,16.20
2018-04-23T07:05:46.122Z,16.08
2018-04-23T07:08:14.399Z,15.48
2018-04-23T07:10:41.890Z,16.27
2018-04-23T07:13:09.456Z,16.40
2018-04-23T07:15:37.006Z,16.48
2018-04-23T07:18:04.583Z,17.48
2018-04-23T07:20:32.053Z,15.82
2018-04-23T07:22:59.571Z,15.85
2018-04-23T07:25:27.790Z,16.50
2018-04-23T07:27:55.273Z,15.10
2018-04-23T07:30:22.738Z,14.60
2018-04-23T07:32:50.226Z,15.77
2018-04-23T07:35:17.713Z,14.40
2018-04-23T07:37:45.259Z,14.82
2018-04-23T07:40:12.742Z,14.02
2018-04-23T07:42:40.199Z,14.80
2018-04-23T07:45:07.682Z,14.70
2018-04-23T07:47:35.154Z,13.70
2018-04-23T07:50:02.630Z,14.40
2018-04-23T07:52:30.123Z,14.50
2018-04-23T07:54:58.389Z,13.98
2018-04-23T07:57:25.846Z,13.40
2018-04-23T07:59:53.363Z,13.23
2018-04-23T08:02:21.571Z,13.10
2018-04-23T08:04:49.060Z,13.70
2018-04-23T08:07:16.530Z,13.03
2018-04-23T08:09:44.002Z,13.62
2018-04-23T08:12:11.511Z,12.80
2018-04-23T08:14:38.983Z,11.80
2018-04-23T08:17:07.276Z,12.80
2018-04-23T08:19:35.524Z,12.23
2018-04-23T08:22:03.104Z,12.63
2018-04-23T08:24:30.673Z,12.10
2018-04-23T08:26:58.136Z,12.23
2018-04-23T08:29:25.609Z,12.60
2018-04-23T08:31:53.099Z,13.27
2018-04-23T08:34:21.336Z,13.20
2018-04-23T08:36:48.931Z,11.40
2018-04-23T08:39:16.378Z,12.00
2018-04-23T08:41:43.846Z,12.37
2018-04-23T08:44:11.323Z,12.33
2018-04-23T08:46:38.777Z,11.95
2018-04-23T08:49:06.250Z,12.73
2018-04-23T08:51:33.743Z,11.88
2018-04-23T08:54:01.190Z,12.60
2018-04-23T08:56:28.666Z,12.10
2018-04-23T08:58:56.117Z,11.30
2018-04-23T09:01:23.678Z,12.27
2018-04-23T09:03:51.185Z,12.70
2018-04-23T09:06:18.757Z,12.70
2018-04-23T09:08:46.258Z,12.20
2018-04-23T09:11:13.824Z,12.02
2018-04-23T09:13:41.312Z,11.90
2018-04-23T09:16:09.531Z,12.07
2018-04-23T09:18:37.053Z,11.65
2018-04-23T09:21:04.615Z,10.95
2018-04-23T09:23:32.197Z,11.00
2018-04-23T09:25:59.677Z,10.43
2018-04-23T09:28:27.913Z,10.05
2018-04-23T09:30:55.399Z,10.00
2018-04-23T09:33:22.887Z,10.40
2018-04-23T09:35:50.361Z,10.25
2018-04-23T09:38:17.834Z,9.05
2018-04-23T09:40:45.317Z,9.80
2018-04-23T09:43:13.581Z,9.45
2018-04-23T09:45:41.042Z,9.20
2018-04-23T09:48:08.520Z,9.02
2018-04-23T09:50:35.984Z,9.00
2018-04-23T09:53:03.473Z,8.55
2018-04-23T09:55:30.968Z,7.90
2018-04-23T09:57:58.486Z,8.85
2018-04-23T10:03:16.679Z,8.60
2018-04-23T10:05:44.159Z,9.07
2018-04-23T10:08:12.369Z,9.30
2018-04-23T10:10:40.617Z,8.98
2018-04-23T10:13:08.085Z,8.45
2018-04-23T10:15:35.582Z,8.30
2018-04-23T10:18:03.046Z,8.57
2018-04-23T10:20:31.333Z,8.00
2018-04-23T10:22:58.813Z,8.35
2018-04-23T10:25:26.411Z,7.90
2018-04-23T10:27:53.934Z,8.20
2018-04-23T10:30:21.412Z,7.93
2018-04-23T10:32:50.397Z,8.15
2018-04-23T10:35:17.870Z,7.80
2018-04-23T10:37:45.351Z,7.90
2018-04-23T10:40:13.615Z,7.72
2018-04-23T10:42:41.089Z,8.68
2018-04-23T10:45:08.586Z,8.45
2018-04-23T10:47:36.139Z,8.43
2018-04-23T10:50:03.616Z,8.50
2018-04-23T10:52:31.069Z,7.57
2018-04-23T10:54:58.555Z,7.73
2018-04-23T10:57:26.007Z,7.78
2018-04-23T10:59:54.247Z,8.43
2018-04-23T11:02:22.467Z,7.85
2018-04-23T11:04:49.941Z,8.90
2018-04-23T11:07:17.418Z,8.18
2018-04-23T11:09:44.895Z,8.23
2018-04-23T11:12:12.348Z,7.80
2018-04-23T11:14:39.810Z,7.90
2018-04-23T11:17:07.312Z,7.30
2018-04-23T11:19:34.762Z,6.67
2018-04-23T11:22:02.241Z,6.50
2018-04-23T11:24:29.711Z,6.97
2018-04-23T11:26:57.159Z,7.03
2018-04-23T11:29:24.617Z,7.00
2018-04-23T11:31:52.098Z,6.50
2018-04-23T11:34:19.572Z,7.32
2018-04-23T11:36:47.056Z,7.40
2018-04-23T11:39:14.527Z,6.68
2018-04-23T11:41:41.994Z,7.30
2018-04-23T11:44:09.474Z,8.00
2018-04-23T11:46:36.944Z,7.62
2018-04-23T11:49:04.422Z,8.00
2018-04-23T11:51:31.872Z,8.02
2018-04-23T11:53:59.360Z,7.50
2018-04-23T11:56:27.585Z,8.45
2018-04-23T11:58:55.820Z,8.40
2018-04-23T12:01:23.274Z,8.50
2018-04-23T12:03:50.740Z,8.73
2018-04-23T12:06:18.221Z,8.60
2018-04-23T12:08:45.702Z,8.68
2018-04-23T12:11:13.176Z,8.50
2018-04-23T12:13:40.627Z,8.38
2018-04-23T12:16:08.111Z,8.20
2018-04-23T12:18:35.577Z,8.07
2018-04-23T12:21:03.064Z,7.90
2018-04-23T12:23:30.619Z,8.10
2018-04-23T12:25:58.105Z,7.75
2018-04-23T12:28:25.582Z,8.23
2018-04-23T12:30:53.076Z,8.63
2018-04-23T12:33:21.313Z,7.68
2018-04-23T12:35:48.770Z,8.00
2018-04-23T12:38:16.223Z,7.80
2018-04-23T12:40:43.696Z,7.80
2018-04-23T12:43:11.172Z,7.50
2018-04-23T12:45:38.651Z,8.00
2018-04-23T12:48:06.124Z,9.00
2018-04-23T12:50:33.593Z,8.33
2018-04-23T12:53:01.058Z,8.60
2018-04-23T12:55:28.526Z,8.27
2018-04-23T12:57:56.008Z,7.80
2018-04-23T13:00:23.481Z,8.68
2018-04-23T13:02:50.973Z,8.40
2018-04-23T13:05:18.426Z,8.50
2018-04-23T13:07:45.887Z,8.60
2018-04-23T13:10:13.419Z,8.73
2018-04-23T13:12:41.664Z,8.73
2018-04-23T13:15:09.143Z,8.65
2018-04-23T13:17:36.597Z,7.60
2018-04-23T13:20:04.059Z,8.55
2018-04-23T13:22:31.506Z,8.48
2018-04-23T13:24:58.996Z,8.70
2018-04-23T13:27:26.489Z,8.27
2018-04-23T13:29:53.965Z,8.25
2018-04-23T13:32:21.429Z,7.90
2018-04-23T13:34:48.909Z,8.15
2018-04-23T13:37:16.364Z,8.80
2018-04-23T13:39:43.837Z,8.23
2018-04-23T13:42:11.303Z,7.90
2018-04-23T13:44:38.770Z,8.60
2018-04-23T13:47:06.265Z,8.23
2018-04-23T13:49:34.505Z,8.30
2018-04-23T13:52:01.978Z,7.53
2018-04-23T13:54:29.466Z,8.52
2018-04-23T13:56:57.048Z,9.27
2018-04-23T13:59:25.225Z,7.70
2018-04-23T14:01:52.701Z,8.40
2018-04-23T14:04:20.146Z,8.60
2018-04-23T14:06:47.633Z,8.52
2018-04-23T14:09:15.114Z,8.00
2018-04-23T14:11:42.671Z,8.10
2018-04-23T14:14:10.236Z,7.80
2018-04-23T14:16:37.806Z,8.18
2018-04-23T14:19:05.259Z,7.90
2018-04-23T14:21:32.765Z,8.60
2018-04-23T14:24:00.272Z,8.02
2018-04-23T14:26:27.898Z,9.10
2018-04-23T14:28:55.345Z,7.80
2018-04-23T14:31:22.804Z,7.97
2018-04-23T14:33:50.304Z,7.60
2018-04-23T14:36:17.822Z,7.62
2018-04-23T14:38:46.051Z,8.25
2018-04-23T14:41:13.522Z,7.40
2018-04-23T14:43:40.991Z,7.30
2018-04-23T14:46:08.448Z,7.68
2018-04-23T14:48:35.911Z,7.20
2018-04-23T14:51:03.417Z,6.95
2018-04-23T14:53:31.017Z,7.70
2018-04-23T14:55:59.274Z,7.10
2018-04-23T14:58:26.736Z,6.80
2018-04-23T15:00:54.213Z,7.28
2018-04-23T15:03:21.675Z,6.32
2018-04-23T15:05:49.137Z,6.30
2018-04-23T15:08:17.346Z,6.40
2018-04-23T15:10:44.801Z,6.30
2018-04-23T15:13:12.285Z,6.53
2018-04-23T15:15:39.860Z,5.78
2018-04-23T15:21:00.100Z,6.70
2018-04-23T15:23:27.640Z,7.12
2018-04-23T15:25:55.123Z,6.97
2018-04-23T15:28:22.714Z,6.90
2018-04-23T15:30:50.194Z,7.00
2018-04-23T15:36:09.182Z,6.45
2018-04-23T15:38:36.773Z,5.80
2018-04-23T15:41:05.032Z,5.78
2018-04-23T15:43:33.310Z,6.43
2018-04-23T15:46:00.774Z,6.35
2018-04-23T15:48:28.257Z,6.55
2018-04-23T15:53:46.778Z,6.22
2018-04-23T15:56:15.018Z,5.93
2018-04-23T15:58:42.515Z,5.72
2018-04-23T16:01:09.971Z,6.00
2018-04-23T16:03:37.438Z,5.93
2018-04-23T16:06:04.894Z,5.50
2018-04-23T16:08:32.365Z,5.10
2018-04-23T16:10:59.834Z,5.40
2018-04-23T16:13:27.287Z,4.90
2018-04-23T16:15:54.743Z,4.80
2018-04-23T16:18:22.423Z,4.70
2018-04-23T16:20:49.890Z,4.43
2018-04-23T16:23:17.380Z,4.00
2018-04-23T16:25:44.865Z,4.10
2018-04-23T16:28:12.353Z,4.12
2018-04-23T16:30:39.848Z,4.00
2018-04-23T16:33:08.074Z,4.25
2018-04-23T16:35:35.550Z,4.18
2018-04-23T16:38:03.026Z,4.50
2018-04-23T16:40:30.516Z,4.40
2018-04-23T16:42:58.075Z,5.20
2018-04-23T16:45:25.533Z,4.78
2018-04-23T16:47:53.020Z,4.40
2018-04-23T16:50:20.478Z,4.50
2018-04-23T16:52:47.978Z,3.90
2018-04-23T16:55:16.258Z,4.60
2018-04-23T16:57:43.813Z,4.30
2018-04-23T17:00:11.298Z,4.10
2018-04-23T17:02:38.752Z,4.40
2018-04-23T17:05:06.230Z,4.70
2018-04-23T17:07:33.675Z,4.68
2018-04-23T17:10:01.143Z,4.40
2018-04-23T17:12:28.622Z,4.72
2018-04-23T17:14:56.082Z,4.18
2018-04-23T17:17:23.541Z,4.00
2018-04-23T17:19:51.016Z,4.00
2018-04-23T17:22:18.510Z,4.78
2018-04-23T17:27:36.824Z,4.43
2018-04-23T17:30:04.297Z,4.30
2018-04-23T17:32:31.762Z,4.07
2018-04-23T17:34:59.257Z,4.03
2018-04-23T17:37:27.486Z,4.40
2018-04-23T17:39:54.961Z,3.90
2018-04-23T17:42:22.432Z,4.43
2018-04-23T17:44:49.907Z,4.50
2018-04-23T17:47:17.359Z,4.60
2018-04-23T17:49:44.819Z,4.37
2018-04-23T17:52:12.293Z,4.10
2018-04-23T17:57:30.400Z,3.95
2018-04-23T17:59:57.884Z,4.00
2018-04-23T18:02:25.338Z,3.60
2018-04-23T18:04:52.849Z,4.30
2018-04-23T18:07:21.074Z,4.05
2018-04-23T18:09:50.302Z,4.70
2018-04-23T18:12:17.793Z,4.60
2018-04-23T18:14:45.254Z,4.70
2018-04-23T18:20:04.216Z,4.30
2018-04-23T18:22:31.704Z,4.37
2018-04-23T18:24:59.173Z,4.25
2018-04-23T18:27:26.639Z,3.90
2018-04-23T18:29:54.078Z,4.32
2018-04-23T18:32:21.570Z,4.15
2018-04-23T18:34:49.026Z,4.07
2018-04-23T18:37:16.469Z,4.00
2018-04-23T18:39:44.695Z,4.18
2018-04-23T18:42:12.183Z,4.10
2018-04-23T18:44:39.715Z,3.90
2018-04-23T18:47:08.811Z,3.67
2018-04-23T18:49:37.033Z,3.20
2018-04-23T18:52:04.484Z,3.50
2018-04-23T18:54:31.928Z,4.17
2018-04-23T18:57:00.160Z,3.60
2018-04-23T18:59:27.624Z,3.92
2018-04-23T19:04:45.807Z,3.50
2018-04-23T19:07:13.278Z,3.70
2018-04-23T19:09:40.740Z,3.37
2018-04-23T19:12:08.236Z,3.50
2018-04-23T19:14:35.697Z,3.90
2018-04-23T19:17:03.154Z,3.40
2018-04-23T19:19:30.620Z,4.55
2018-04-23T19:21:58.193Z,3.80
2018-04-23T19:24:25.565Z,3.87
2018-04-23T19:26:53.018Z,3.90
2018-04-23T19:29:20.475Z,3.90
2018-04-23T19:31:48.725Z,4.40
2018-04-23T19:34:16.180Z,3.67
2018-04-23T19:36:43.635Z,3.87
2018-04-23T19:39:11.126Z,3.78
2018-04-23T19:41:38.579Z,3.70
2018-04-23T19:44:06.047Z,4.05
2018-04-23T19:46:33.485Z,3.40
2018-04-23T19:49:00.963Z,3.55
2018-04-23T19:51:28.418Z,3.80
2018-04-23T19:53:56.653Z,3.70
2018-04-23T19:56:24.152Z,4.00
2018-04-23T20:01:42.637Z,3.97
2018-04-23T20:04:10.116Z,4.20
2018-04-23T20:06:37.596Z,3.93
2018-04-23T20:09:05.813Z,4.10
2018-04-23T20:11:33.291Z,3.80
2018-04-23T20:14:00.742Z,4.30
2018-04-23T20:16:28.219Z,4.20
2018-04-23T20:18:55.683Z,3.90
2018-04-23T20:21:23.180Z,4.50
2018-04-23T20:23:50.655Z,4.80
2018-04-23T20:26:18.140Z,4.65
2018-04-23T20:28:45.604Z,4.47
2018-04-23T20:31:13.068Z,4.45
2018-04-23T20:33:40.550Z,4.75
2018-04-23T20:36:08.069Z,4.75
2018-04-23T20:38:36.289Z,5.20
2018-04-23T20:41:03.746Z,4.75
2018-04-23T20:43:31.209Z,4.95
2018-04-23T20:45:58.666Z,4.47
2018-04-23T20:48:26.113Z,4.50
2018-04-23T20:50:54.376Z,5.10
2018-04-23T20:53:21.828Z,5.07
2018-04-23T20:55:49.304Z,4.53
2018-04-23T20:58:16.774Z,4.70
2018-04-23T21:00:44.276Z,4.47
2018-04-23T21:03:12.516Z,5.60
2018-04-23T21:11:20.839Z,5.70
2018-04-23T21:13:48.309Z,4.60
2018-04-23T21:16:15.772Z,5.20
2018-04-23T21:18:43.238Z,5.20
2018-04-23T21:21:10.717Z,5.20
2018-04-23T21:23:38.194Z,5.35
2018-04-23T21:26:06.209Z,5.00
2018-04-23T21:28:33.675Z,5.65
2018-04-23T21:31:01.308Z,5.40
2018-04-23T21:33:28.871Z,5.32
2018-04-23T21:35:56.343Z,5.32
2018-04-23T21:38:23.803Z,5.18
2018-04-23T21:40:51.271Z,5.35
2018-04-23T21:43:18.721Z,4.85
2018-04-23T21:45:46.187Z,5.20
2018-04-23T21:48:13.659Z,5.32
2018-04-23T21:50:41.144Z,5.57
2018-04-23T21:53:08.625Z,5.13
2018-04-23T21:55:36.104Z,5.10
2018-04-23T21:58:03.576Z,5.12
2018-04-23T22:00:31.156Z,5.00
2018-04-23T22:02:58.706Z,6.20
2018-04-23T22:05:26.256Z,5.90
2018-04-23T22:07:54.450Z,6.00
2018-04-23T22:10:21.906Z,5.40
2018-04-23T22:12:49.377Z,5.60
2018-04-23T22:15:16.838Z,6.00
2018-04-23T22:17:44.333Z,5.80
2018-04-23T22:20:11.790Z,6.07
2018-04-23T22:22:39.281Z,6.13
2018-04-23T22:25:06.849Z,5.95
2018-04-23T22:27:34.318Z,6.30
2018-04-23T22:30:01.777Z,6.40
2018-04-23T22:32:29.261Z,5.75
2018-04-23T22:34:56.764Z,6.10
2018-04-23T22:37:24.998Z,6.70
2018-04-23T22:39:52.472Z,6.18
2018-04-23T22:42:19.974Z,6.40
2018-04-23T22:44:47.438Z,6.07
2018-04-23T22:47:15.021Z,6.78
2018-04-23T22:49:42.581Z,6.62
2018-04-23T22:52:10.060Z,6.87
2018-04-23T22:54:37.629Z,7.00
2018-04-23T22:57:05.082Z,6.80
2018-04-23T22:59:32.573Z,6.55
2018-04-23T23:02:00.137Z,6.70
2018-04-23T23:04:27.695Z,6.80
2018-04-23T23:06:55.173Z,7.18
2018-04-23T23:09:22.645Z,6.50
2018-04-23T23:11:50.119Z,6.93
2018-04-23T23:14:17.678Z,5.90
2018-04-23T23:16:45.265Z,6.60
2018-04-23T23:19:14.271Z,6.80
2018-04-23T23:21:41.730Z,6.85
2018-04-23T23:24:09.202Z,6.40
2018-04-23T23:26:36.669Z,6.55
2018-04-23T23:29:04.117Z,6.30
2018-04-23T23:31:31.607Z,6.40
2018-04-23T23:33:59.083Z,6.45
2018-04-23T23:36:26.543Z,6.40
2018-04-23T23:38:54.010Z,7.20
2018-04-23T23:41:21.461Z,6.30
2018-04-23T23:43:48.949Z,5.47
2018-04-23T23:46:16.419Z,6.10
2018-04-23T23:48:43.916Z,6.28
2018-04-23T23:51:11.382Z,6.40
2018-04-23T23:53:38.924Z,6.60
2018-04-23T23:56:06.400Z,6.80
2018-04-23T23:58:33.884Z,7.20
